Time;durP1;ratioP1;P1;durP2;ratioP2;P2;SDS_P1;SDS_P2;PMS_P1;PMS_P2;Temp;Humidity;BMP_temperature;BMP_pressure;BME280_temperature;BME280_humidity;BME280_pressure;Samples;Min_cycle;Max_cycle;Signal;HPM_P1;HPM_P2
2023/04/22 00:00:49;;;;;;;50.15;25.13;;;5.50;99.90;;;;;;5011931;28;20041;-53
2023/04/22 00:03:14;;;;;;;47.28;25.35;;;5.50;99.90;;;;;;5011603;28;20022;-55
2023/04/22 00:05:41;;;;;;;49.22;26.60;;;5.50;99.90;;;;;;5012101;28;20105;-49
2023/04/22 00:08:07;;;;;;;53.47;27.23;;;5.50;99.90;;;;;;5011650;28;20034;-55
2023/04/22 00:10:33;;;;;;;48.97;26.10;;;5.50;99.90;;;;;;5011977;28;20026;-52
2023/04/22 00:12:59;;;;;;;51.63;26.75;;;5.60;99.90;;;;;;5011805;28;20029;-52
2023/04/22 00:15:25;;;;;;;48.85;25.52;;;5.60;99.90;;;;;;5011860;28;20044;-50
2023/04/22 00:17:51;;;;;;;47.50;26.23;;;5.60;99.90;;;;;;5011768;28;20038;-53
2023/04/22 00:20:20;;;;;;;48.13;25.17;;;5.60;99.90;;;;;;5011638;28;20026;-52
2023/04/22 00:22:46;;;;;;;43.17;24.40;;;5.60;99.90;;;;;;5011649;28;20057;-56
2023/04/22 00:25:11;;;;;;;42.92;23.80;;;5.60;99.90;;;;;;5011419;28;20064;-56
2023/04/22 00:27:37;;;;;;;46.67;24.08;;;5.50;99.90;;;;;;5011571;28;20104;-58
2023/04/22 00:30:04;;;;;;;46.75;24.27;;;5.50;99.90;;;;;;5009734;28;20451;-57
2023/04/22 00:32:30;;;;;;;47.92;25.13;;;5.50;99.90;;;;;;5011497;28;20046;-52
2023/04/22 00:34:56;;;;;;;44.67;24.70;;;5.50;99.90;;;;;;5011543;28;20065;-59
2023/04/22 00:37:23;;;;;;;44.42;24.00;;;5.50;99.90;;;;;;5011401;28;20105;-56
2023/04/22 00:39:48;;;;;;;47.55;25.80;;;5.50;99.90;;;;;;5011125;28;20022;-57
2023/04/22 00:42:15;;;;;;;47.40;24.02;;;5.50;99.90;;;;;;5011202;28;20033;-55
2023/04/22 00:44:41;;;;;;;48.55;26.55;;;5.50;99.90;;;;;;5011595;28;20030;-49
2023/04/22 00:47:08;;;;;;;44.65;24.55;;;5.60;99.90;;;;;;5011354;28;20128;-54
2023/04/22 00:49:35;;;;;;;42.03;23.38;;;5.60;99.90;;;;;;5011399;28;20418;-55
2023/04/22 00:52:01;;;;;;;41.85;23.80;;;5.50;99.90;;;;;;5011331;28;20033;-54
2023/04/22 00:54:27;;;;;;;47.33;24.88;;;5.40;99.90;;;;;;5009778;28;20018;-54
2023/04/22 00:56:54;;;;;;;49.25;25.08;;;5.30;99.90;;;;;;5011065;28;20071;-55
2023/04/22 00:59:21;;;;;;;46.70;24.92;;;5.20;99.90;;;;;;5010641;28;20026;-54
2023/04/22 01:01:47;;;;;;;41.97;23.17;;;5.30;99.90;;;;;;5010822;28;20553;-54
2023/04/22 01:04:14;;;;;;;46.42;25.00;;;5.30;99.90;;;;;;5011084;28;20152;-56
2023/04/22 01:06:42;;;;;;;43.97;24.45;;;5.40;99.90;;;;;;5010859;28;20469;-55
2023/04/22 01:09:07;;;;;;;48.85;25.98;;;5.50;99.90;;;;;;5010994;28;20041;-53
2023/04/22 01:11:34;;;;;;;48.58;25.38;;;5.50;99.90;;;;;;5010828;28;20026;-51
2023/04/22 01:14:01;;;;;;;46.00;25.13;;;5.50;99.90;;;;;;5011255;28;20104;-53
2023/04/22 01:16:28;;;;;;;44.20;24.58;;;5.40;99.90;;;;;;5010767;28;20021;-56
2023/04/22 01:18:54;;;;;;;44.80;24.65;;;5.40;99.90;;;;;;5010898;28;20018;-56
2023/04/22 01:21:20;;;;;;;43.38;24.23;;;5.30;99.90;;;;;;5010853;28;20033;-53
2023/04/22 01:23:46;;;;;;;41.63;23.15;;;5.20;99.90;;;;;;5010886;28;20018;-52
2023/04/22 01:26:12;;;;;;;42.63;23.60;;;5.20;99.90;;;;;;5010774;28;20034;-53
2023/04/22 01:28:37;;;;;;;45.70;24.52;;;5.20;99.90;;;;;;5010420;28;20040;-54
2023/04/22 01:31:03;;;;;;;43.53;24.85;;;5.20;99.90;;;;;;5010358;28;20022;-51
2023/04/22 01:33:29;;;;;;;46.58;24.88;;;5.20;99.90;;;;;;5009256;28;20121;-55
2023/04/22 01:35:55;;;;;;;41.80;23.90;;;5.30;99.90;;;;;;5010737;28;20026;-53
2023/04/22 01:38:22;;;;;;;44.42;24.05;;;5.20;99.90;;;;;;5009377;28;20080;-55
2023/04/22 01:40:47;;;;;;;44.03;23.48;;;5.20;99.90;;;;;;5010440;28;20069;-49
2023/04/22 01:43:13;;;;;;;44.97;24.35;;;5.20;99.90;;;;;;5009513;28;20070;-52
2023/04/22 01:45:38;;;;;;;43.28;23.48;;;5.20;99.90;;;;;;5008615;28;20026;-53
2023/04/22 01:48:05;;;;;;;47.08;24.63;;;5.20;99.90;;;;;;5010483;28;20448;-57
2023/04/22 01:50:32;;;;;;;47.58;25.88;;;5.20;99.90;;;;;;5010286;28;20536;-54
2023/04/22 01:52:58;;;;;;;45.80;25.80;;;5.20;99.90;;;;;;5012065;28;20370;-50
2023/04/22 01:55:23;;;;;;;48.15;26.63;;;5.10;99.90;;;;;;5014377;28;20507;-56
2023/04/22 01:57:49;;;;;;;44.88;24.50;;;5.10;99.90;;;;;;5014189;28;20033;-56
2023/04/22 02:00:15;;;;;;;47.25;24.80;;;5.20;99.90;;;;;;5013834;28;20523;-59
2023/04/22 02:02:41;;;;;;;41.50;22.42;;;5.30;99.90;;;;;;5014014;28;20032;-56
2023/04/22 02:05:07;;;;;;;39.85;22.05;;;5.30;99.90;;;;;;5013470;28;20160;-55
2023/04/22 02:07:35;;;;;;;39.28;20.98;;;5.30;99.90;;;;;;5013399;28;20037;-56
2023/04/22 02:10:01;;;;;;;39.17;21.63;;;5.30;99.90;;;;;;5013878;28;20013;-52
2023/04/22 02:12:26;;;;;;;38.05;20.48;;;5.30;99.90;;;;;;5014004;28;20092;-53
2023/04/22 02:14:52;;;;;;;42.20;22.45;;;5.30;99.90;;;;;;5013968;28;20426;-53
2023/04/22 02:17:17;;;;;;;42.65;22.08;;;5.20;99.90;;;;;;5013947;28;20388;-54
2023/04/22 02:19:43;;;;;;;42.08;22.85;;;5.20;99.90;;;;;;5013933;28;20089;-57
2023/04/22 02:22:09;;;;;;;39.03;21.60;;;5.10;99.90;;;;;;5012288;28;20390;-56
2023/04/22 02:24:35;;;;;;;39.35;20.92;;;5.10;99.90;;;;;;5012563;28;20485;-60
2023/04/22 02:27:00;;;;;;;37.78;21.35;;;5.10;99.90;;;;;;5013654;28;20489;-52
2023/04/22 02:29:26;;;;;;;38.17;20.75;;;5.00;99.90;;;;;;5013172;28;20485;-56
2023/04/22 02:31:51;;;;;;;43.40;22.20;;;5.00;99.90;;;;;;5013057;28;20421;-54
2023/04/22 02:34:17;;;;;;;39.67;22.05;;;5.00;99.90;;;;;;5012275;28;20026;-58
2023/04/22 02:36:43;;;;;;;37.60;20.80;;;5.00;99.90;;;;;;5013382;28;20036;-54
2023/04/22 02:39:08;;;;;;;42.58;22.15;;;5.00;99.90;;;;;;5013350;28;20093;-52
2023/04/22 02:41:34;;;;;;;41.85;21.95;;;5.00;99.90;;;;;;5012900;28;20034;-53
2023/04/22 02:44:00;;;;;;;47.47;23.38;;;5.00;99.90;;;;;;5013696;28;20030;-53
2023/04/22 02:46:25;;;;;;;39.10;22.00;;;5.00;99.90;;;;;;5012884;28;20026;-55
2023/04/22 02:48:51;;;;;;;38.15;21.08;;;5.00;99.90;;;;;;5013310;28;20140;-53
2023/04/22 02:51:17;;;;;;;40.80;23.30;;;5.00;99.90;;;;;;5013214;28;20026;-56
2023/04/22 02:53:42;;;;;;;39.25;22.60;;;5.10;99.90;;;;;;5013469;28;20037;-54
2023/04/22 02:56:08;;;;;;;41.80;23.10;;;5.10;99.90;;;;;;5012123;28;20050;-53
2023/04/22 02:58:34;;;;;;;41.75;21.58;;;5.00;99.90;;;;;;5013107;28;20061;-57
2023/04/22 03:01:00;;;;;;;41.85;22.55;;;5.00;99.90;;;;;;5012533;28;20046;-51
2023/04/22 03:03:25;;;;;;;44.90;22.60;;;4.90;99.90;;;;;;5011671;28;20058;-56
2023/04/22 03:05:51;;;;;;;44.05;22.92;;;4.80;99.90;;;;;;5012142;28;20026;-56
2023/04/22 03:08:18;;;;;;;39.92;21.80;;;4.70;99.90;;;;;;5011702;28;20040;-52
2023/04/22 03:10:43;;;;;;;40.40;22.30;;;4.70;99.90;;;;;;5009804;28;20117;-49
2023/04/22 03:13:09;;;;;;;40.85;22.55;;;4.60;99.90;;;;;;5011576;28;20109;-56
2023/04/22 03:15:34;;;;;;;37.67;22.00;;;4.60;99.90;;;;;;5011662;28;20030;-49
2023/04/22 03:18:00;;;;;;;34.17;20.20;;;4.60;99.90;;;;;;5011718;28;20040;-57
2023/04/22 03:20:26;;;;;;;39.58;20.80;;;4.60;99.90;;;;;;5011848;28;20029;-59
2023/04/22 03:22:51;;;;;;;37.58;22.00;;;4.60;99.90;;;;;;5011659;28;20389;-54
2023/04/22 03:25:17;;;;;;;45.72;23.25;;;4.60;99.90;;;;;;5011347;28;20101;-58
2023/04/22 03:27:42;;;;;;;42.50;22.85;;;4.60;99.90;;;;;;5010836;28;20069;-52
2023/04/22 03:30:08;;;;;;;43.55;23.90;;;4.60;99.90;;;;;;5010963;28;20030;-55
2023/04/22 03:32:34;;;;;;;43.10;22.90;;;4.60;99.90;;;;;;5011280;28;20489;-52
2023/04/22 03:35:00;;;;;;;43.88;22.77;;;4.70;99.90;;;;;;5011844;28;20033;-56
2023/04/22 03:37:25;;;;;;;40.40;22.02;;;4.80;99.90;;;;;;5011420;28;20033;-55
2023/04/22 03:39:51;;;;;;;42.50;22.77;;;4.80;99.90;;;;;;5011698;28;20028;-49
2023/04/22 03:42:17;;;;;;;41.45;23.17;;;4.90;99.90;;;;;;5010827;28;20045;-54
2023/04/22 03:44:42;;;;;;;41.58;23.25;;;4.90;99.90;;;;;;5010652;28;20034;-55
2023/04/22 03:47:08;;;;;;;45.00;22.98;;;4.90;99.90;;;;;;5011026;28;20422;-54
2023/04/22 03:49:33;;;;;;;42.55;21.90;;;4.90;99.90;;;;;;5010464;28;20034;-51
2023/04/22 03:52:00;;;;;;;40.83;22.08;;;5.00;99.90;;;;;;5011079;28;20428;-52
2023/04/22 03:54:26;;;;;;;42.42;22.92;;;5.00;99.90;;;;;;5011378;28;20022;-52
2023/04/22 03:56:51;;;;;;;39.90;21.90;;;5.00;99.90;;;;;;5011172;28;20028;-54
2023/04/22 03:59:17;;;;;;;41.35;22.58;;;5.00;99.90;;;;;;5009851;28;20078;-54
2023/04/22 04:01:45;;;;;;;39.85;21.92;;;5.00;99.90;;;;;;4973115;28;1115980;-53
2023/04/22 04:04:11;;;;;;;40.63;21.48;;;5.00;99.90;;;;;;5011958;28;20428;-53
2023/04/22 04:06:36;;;;;;;41.28;22.20;;;5.00;99.90;;;;;;5026823;28;20033;-59
2023/04/22 04:09:02;;;;;;;43.92;21.75;;;5.00;99.90;;;;;;5011818;28;20038;-51
2023/04/22 04:11:29;;;;;;;42.72;21.33;;;5.00;99.90;;;;;;5009766;28;20452;-51
2023/04/22 04:13:55;;;;;;;38.45;21.10;;;4.90;99.90;;;;;;5011111;28;20029;-50
2023/04/22 04:16:20;;;;;;;36.97;20.98;;;4.90;99.90;;;;;;5011424;28;20033;-55
2023/04/22 04:18:49;;;;;;;42.85;22.83;;;4.90;99.90;;;;;;5011700;28;20097;-53
2023/04/22 04:21:15;;;;;;;42.30;22.98;;;5.00;99.90;;;;;;5011986;28;20049;-58
2023/04/22 04:23:41;;;;;;;42.58;23.70;;;5.00;99.90;;;;;;5011517;28;20070;-55
2023/04/22 04:26:07;;;;;;;40.70;21.77;;;5.10;99.90;;;;;;5011684;28;20030;-57
2023/04/22 04:28:34;;;;;;;37.50;22.48;;;5.10;99.90;;;;;;5011887;28;20037;-55
2023/04/22 04:31:01;;;;;;;40.60;21.25;;;5.20;99.90;;;;;;5011193;28;20014;-53
2023/04/22 04:33:27;;;;;;;38.40;22.75;;;5.20;99.90;;;;;;5011832;28;20420;-53
2023/04/22 04:35:53;;;;;;;40.90;22.33;;;5.20;99.90;;;;;;5011415;28;20022;-54
2023/04/22 04:38:19;;;;;;;44.83;22.70;;;5.20;99.90;;;;;;5011516;28;20026;-53
2023/04/22 04:40:44;;;;;;;43.63;22.92;;;5.20;99.90;;;;;;5011347;28;20044;-52
2023/04/22 04:43:11;;;;;;;44.17;21.63;;;5.20;99.90;;;;;;5010551;28;20100;-51
2023/04/22 04:45:38;;;;;;;45.38;23.42;;;5.20;99.90;;;;;;5010902;28;20029;-50
2023/04/22 04:48:06;;;;;;;44.75;22.60;;;5.20;99.90;;;;;;5009988;28;20100;-55
2023/04/22 04:50:32;;;;;;;45.35;22.15;;;5.20;99.90;;;;;;5011140;28;20040;-50
2023/04/22 04:52:57;;;;;;;47.17;23.80;;;5.20;99.90;;;;;;5010635;28;20492;-56
2023/04/22 04:55:23;;;;;;;45.30;23.15;;;5.30;99.90;;;;;;5011008;28;20026;-58
2023/04/22 04:57:49;;;;;;;45.88;22.77;;;5.30;99.90;;;;;;5010906;28;20396;-49
2023/04/22 05:00:14;;;;;;;45.85;24.35;;;5.30;99.90;;;;;;5010969;28;20544;-53
2023/04/22 05:02:40;;;;;;;48.75;24.95;;;5.30;99.90;;;;;;5010866;28;20120;-50
2023/04/22 05:05:07;;;;;;;45.53;23.70;;;5.30;99.90;;;;;;5010911;28;20660;-57
2023/04/22 05:07:33;;;;;;;50.65;24.63;;;5.30;99.90;;;;;;5010025;28;20129;-55
2023/04/22 05:09:59;;;;;;;56.75;26.45;;;5.40;99.90;;;;;;5010223;28;20106;-54
2023/04/22 05:12:25;;;;;;;51.85;26.00;;;5.40;99.90;;;;;;5010839;28;20095;-53
2023/04/22 05:14:51;;;;;;;55.75;27.08;;;5.50;99.90;;;;;;5010683;28;20033;-54
2023/04/22 05:17:16;;;;;;;53.80;26.73;;;5.50;99.90;;;;;;5010834;28;20052;-53
2023/04/22 05:19:42;;;;;;;59.30;26.83;;;5.50;99.90;;;;;;5010756;28;20452;-57
2023/04/22 05:22:07;;;;;;;48.88;24.90;;;5.60;99.90;;;;;;5010778;28;20053;-52
2023/04/22 05:24:33;;;;;;;47.75;23.85;;;5.60;99.90;;;;;;5010820;28;20117;-53
2023/04/22 05:26:59;;;;;;;49.40;23.38;;;5.70;99.90;;;;;;5009674;28;20053;-52
2023/04/22 05:29:25;;;;;;;49.72;23.75;;;5.70;99.90;;;;;;5010597;28;20033;-51
2023/04/22 05:31:51;;;;;;;48.35;22.63;;;5.70;99.90;;;;;;5010513;28;20120;-54
2023/04/22 05:34:17;;;;;;;48.88;22.45;;;5.80;99.90;;;;;;5008497;28;20106;-52
2023/04/22 05:36:42;;;;;;;45.80;21.85;;;5.80;99.90;;;;;;5010804;28;20393;-55
2023/04/22 05:39:08;;;;;;;48.00;22.98;;;5.90;99.90;;;;;;5010270;28;20057;-54
2023/04/22 05:41:34;;;;;;;49.85;23.67;;;5.90;99.90;;;;;;5010739;28;20354;-55
2023/04/22 05:43:59;;;;;;;47.53;22.17;;;6.00;99.90;;;;;;5010247;28;20554;-53
2023/04/22 05:46:25;;;;;;;43.63;22.10;;;6.10;99.90;;;;;;5010449;28;20048;-54
2023/04/22 05:48:51;;;;;;;42.53;21.33;;;6.20;99.90;;;;;;5010424;28;20108;-50
2023/04/22 05:51:16;;;;;;;36.72;19.95;;;6.30;99.90;;;;;;5009331;28;20018;-56
2023/04/22 05:53:42;;;;;;;36.85;19.60;;;6.40;99.90;;;;;;5009811;28;20033;-53
2023/04/22 05:56:08;;;;;;;38.45;20.35;;;6.50;99.90;;;;;;5009946;28;20022;-53
2023/04/22 05:58:33;;;;;;;36.97;19.30;;;6.60;99.90;;;;;;5009979;28;20092;-57
2023/04/22 06:00:59;;;;;;;37.17;20.33;;;6.50;99.90;;;;;;5010045;28;20493;-49
2023/04/22 06:03:25;;;;;;;38.75;21.55;;;6.50;99.90;;;;;;5010634;28;20026;-58
2023/04/22 06:05:50;;;;;;;38.35;20.98;;;6.40;99.90;;;;;;5009949;28;20033;-54
2023/04/22 06:08:16;;;;;;;41.70;22.55;;;6.40;99.90;;;;;;5007901;28;20038;-54
2023/04/22 06:10:42;;;;;;;38.90;21.40;;;6.40;99.90;;;;;;5010086;28;20088;-57
2023/04/22 06:13:08;;;;;;;36.72;20.85;;;6.40;99.90;;;;;;5010103;28;20400;-54
2023/04/22 06:15:34;;;;;;;43.28;22.98;;;6.50;99.90;;;;;;5010184;28;20026;-56
2023/04/22 06:18:00;;;;;;;37.90;21.55;;;6.50;99.90;;;;;;5010640;28;20634;-57
2023/04/22 06:20:26;;;;;;;40.22;21.75;;;6.50;99.90;;;;;;5010249;28;20030;-52
2023/04/22 06:22:52;;;;;;;41.22;22.48;;;6.60;99.90;;;;;;5010202;28;20436;-56
2023/04/22 06:25:17;;;;;;;40.33;22.25;;;6.70;99.90;;;;;;5009828;28;20350;-53
2023/04/22 06:27:43;;;;;;;37.00;20.45;;;6.80;99.90;;;;;;5007643;28;20045;-52
2023/04/22 06:30:10;;;;;;;36.70;20.92;;;6.90;99.90;;;;;;5009903;28;20541;-50
2023/04/22 06:32:36;;;;;;;35.40;19.90;;;7.00;99.90;;;;;;5008238;28;20390;-51
2023/04/22 06:35:02;;;;;;;39.85;20.38;;;7.00;99.90;;;;;;5009294;28;20026;-55
2023/04/22 06:37:27;;;;;;;37.22;20.65;;;7.10;99.90;;;;;;5008212;28;20037;-56
2023/04/22 06:39:53;;;;;;;35.55;20.52;;;7.10;99.90;;;;;;5011764;28;20022;-49
2023/04/22 06:42:18;;;;;;;34.05;19.90;;;7.20;99.90;;;;;;5011600;28;20045;-56
2023/04/22 06:44:44;;;;;;;39.20;22.05;;;7.20;99.90;;;;;;5011714;28;20026;-56
2023/04/22 06:47:09;;;;;;;38.45;20.95;;;7.20;99.90;;;;;;5011839;28;20111;-56
2023/04/22 06:49:37;;;;;;;38.20;20.80;;;7.20;99.90;;;;;;5013347;28;20373;-54
2023/04/22 06:52:03;;;;;;;36.35;21.13;;;7.10;99.90;;;;;;5017977;28;20111;-49
2023/04/22 06:54:29;;;;;;;39.30;21.63;;;7.10;99.90;;;;;;5012976;28;20014;-50
2023/04/22 06:56:55;;;;;;;39.58;21.90;;;7.00;99.90;;;;;;5005551;28;20059;-52
2023/04/22 06:59:21;;;;;;;37.95;20.27;;;7.00;99.90;;;;;;4998321;28;20057;-50
2023/04/22 07:01:46;;;;;;;35.05;21.23;;;6.90;99.90;;;;;;4997725;28;20070;-48
2023/04/22 07:04:12;;;;;;;36.03;20.75;;;6.90;99.90;;;;;;5003258;28;20030;-50
2023/04/22 07:06:38;;;;;;;39.28;20.80;;;7.00;99.90;;;;;;5001044;28;20029;-50
2023/04/22 07:09:04;;;;;;;37.38;20.88;;;7.00;99.90;;;;;;5010180;28;20040;-50
2023/04/22 07:11:30;;;;;;;39.63;22.70;;;7.00;99.90;;;;;;5007321;28;20026;-50
2023/04/22 07:13:56;;;;;;;39.65;21.98;;;7.00;99.90;;;;;;5002341;28;20062;-50
2023/04/22 07:16:22;;;;;;;43.42;21.17;;;7.00;99.90;;;;;;5011589;28;20054;-51
2023/04/22 07:18:47;;;;;;;40.80;22.08;;;7.00;99.90;;;;;;5011286;28;20049;-51
2023/04/22 07:21:13;;;;;;;40.75;22.52;;;7.00;99.90;;;;;;5011451;28;20033;-53
2023/04/22 07:23:39;;;;;;;37.40;22.60;;;7.10;99.90;;;;;;5011087;28;20441;-53
2023/04/22 07:26:05;;;;;;;40.83;21.80;;;7.20;99.90;;;;;;5011050;28;20148;-55
2023/04/22 07:28:30;;;;;;;39.10;21.92;;;7.30;99.90;;;;;;5011260;28;20043;-56
2023/04/22 07:30:56;;;;;;;37.63;21.73;;;7.50;99.90;;;;;;5009839;28;20014;-53
2023/04/22 07:33:21;;;;;;;36.65;21.38;;;7.70;99.90;;;;;;5010224;28;20045;-56
2023/04/22 07:35:47;;;;;;;34.90;20.85;;;7.90;99.90;;;;;;5009337;28;20485;-49
2023/04/22 07:38:13;;;;;;;34.70;19.35;;;8.20;99.90;;;;;;5008214;28;20022;-54
2023/04/22 07:40:39;;;;;;;33.53;19.13;;;8.30;99.90;;;;;;5008780;28;20079;-51
2023/04/22 07:43:04;;;;;;;31.05;19.65;;;8.50;99.90;;;;;;5009386;28;20097;-53
2023/04/22 07:45:31;;;;;;;34.85;19.35;;;8.60;99.90;;;;;;5009808;28;20071;-51
2023/04/22 07:47:56;;;;;;;34.65;19.83;;;8.70;99.90;;;;;;5009996;28;20034;-53
2023/04/22 07:50:22;;;;;;;34.33;19.45;;;8.90;99.90;;;;;;5011563;28;20029;-53
2023/04/22 07:52:48;;;;;;;33.47;19.52;;;9.10;99.90;;;;;;5012277;28;20045;-51
2023/04/22 07:55:13;;;;;;;28.88;18.83;;;9.40;99.90;;;;;;5012295;28;20029;-55
2023/04/22 07:57:39;;;;;;;29.17;17.20;;;9.80;99.90;;;;;;5012152;28;20083;-53
2023/04/22 08:00:06;;;;;;;25.38;16.30;;;10.60;99.90;;;;;;5012198;28;20050;-54
2023/04/22 08:02:32;;;;;;;26.63;17.00;;;11.70;99.90;;;;;;5012017;28;20033;-54
2023/04/22 08:04:57;;;;;;;20.52;14.57;;;12.80;99.90;;;;;;5011968;28;20033;-52
2023/04/22 08:07:24;;;;;;;23.95;15.73;;;13.10;99.90;;;;;;5010464;28;20125;-56
2023/04/22 08:09:49;;;;;;;23.92;15.82;;;13.60;99.90;;;;;;5011669;28;20076;-53
2023/04/22 08:12:15;;;;;;;19.88;14.32;;;15.10;99.90;;;;;;5012027;28;20022;-55
2023/04/22 08:14:40;;;;;;;20.83;14.18;;;16.80;99.90;;;;;;5011830;28;20073;-55
2023/04/22 08:17:06;;;;;;;18.73;13.20;;;18.60;99.90;;;;;;5011851;28;20076;-55
2023/04/22 08:19:32;;;;;;;14.00;10.88;;;20.00;96.00;;;;;;5011899;28;20532;-55
2023/04/22 08:21:57;;;;;;;14.23;11.30;;;21.00;90.90;;;;;;5011604;28;20028;-51
2023/04/22 08:24:23;;;;;;;14.50;12.18;;;20.50;82.90;;;;;;5011526;28;20394;-56
2023/04/22 08:26:48;;;;;;;14.40;10.68;;;20.00;81.20;;;;;;5011682;28;20377;-51
2023/04/22 08:29:14;;;;;;;13.65;11.30;;;19.30;80.10;;;;;;5011671;28;20026;-56
2023/04/22 08:31:40;;;;;;;15.55;11.98;;;18.30;86.90;;;;;;5011730;28;20017;-55
2023/04/22 08:34:06;;;;;;;16.08;11.63;;;17.30;88.10;;;;;;5011592;28;20068;-54
2023/04/22 08:36:32;;;;;;;15.50;12.18;;;16.60;89.60;;;;;;5011713;28;20433;-57
2023/04/22 08:38:57;;;;;;;13.95;10.57;;;16.00;93.10;;;;;;5011027;28;20045;-50
2023/04/22 08:41:23;;;;;;;15.98;11.27;;;15.90;94.70;;;;;;5011296;28;20018;-57
2023/04/22 08:43:50;;;;;;;14.32;11.32;;;15.50;96.00;;;;;;5011549;28;20033;-54
2023/04/22 08:46:18;;;;;;;17.30;11.50;;;15.40;99.90;;;;;;5011106;28;20044;-54
2023/04/22 08:48:46;;;;;;;15.15;11.85;;;15.60;98.70;;;;;;5011484;28;20080;-54
2023/04/22 08:51:15;;;;;;;15.82;12.05;;;16.10;98.70;;;;;;5011105;28;20370;-58
2023/04/22 08:53:42;;;;;;;16.13;12.32;;;16.40;99.20;;;;;;5011487;28;20057;-57
2023/04/22 08:56:08;;;;;;;18.30;13.52;;;16.90;97.00;;;;;;5009963;28;20695;-56
2023/04/22 08:58:34;;;;;;;16.48;13.40;;;17.40;96.20;;;;;;5011487;28;20489;-55
2023/04/22 09:01:01;;;;;;;17.52;12.82;;;18.10;93.90;;;;;;5010749;28;20126;-59
2023/04/22 09:03:26;;;;;;;14.27;12.18;;;18.70;90.00;;;;;;5026523;28;20045;-57
2023/04/22 09:05:53;;;;;;;16.85;12.63;;;19.30;89.30;;;;;;5011197;28;20465;-57
2023/04/22 09:08:19;;;;;;;15.60;12.38;;;19.60;84.20;;;;;;5010858;28;20034;-54
2023/04/22 09:10:45;;;;;;;15.52;12.23;;;20.40;80.20;;;;;;5010901;28;20026;-57
2023/04/22 09:13:13;;;;;;;15.75;12.27;;;20.90;79.50;;;;;;5011158;28;20036;-54
2023/04/22 09:15:39;;;;;;;14.00;11.03;;;22.10;73.20;;;;;;5026172;28;20409;-51
2023/04/22 09:18:04;;;;;;;13.13;11.07;;;23.30;71.60;;;;;;5011330;28;20770;-57
2023/04/22 09:20:30;;;;;;;13.60;10.50;;;23.30;64.90;;;;;;5010837;28;20014;-51
2023/04/22 09:23:00;;;;;;;12.18;10.10;;;24.20;66.20;;;;;;5010613;28;20057;-50
2023/04/22 09:25:27;;;;;;;12.13;9.52;;;24.60;57.90;;;;;;5010695;28;20487;-51
2023/04/22 09:27:55;;;;;;;11.02;8.90;;;24.50;54.60;;;;;;5010769;28;20046;-51
2023/04/22 09:30:29;;;;;;;10.13;8.37;;;24.10;58.20;;;;;;5010738;28;20478;-51
2023/04/22 09:32:56;;;;;;;9.85;8.18;;;24.60;52.80;;;;;;5010828;28;20822;-54
2023/04/22 09:35:26;;;;;;;8.50;6.82;;;24.70;52.70;;;;;;5010866;28;20111;-52
2023/04/22 09:37:52;;;;;;;8.25;7.45;;;24.40;51.10;;;;;;5011117;28;20022;-50
2023/04/22 09:40:19;;;;;;;10.82;8.18;;;25.10;52.60;;;;;;5010930;28;20037;-56
2023/04/22 09:42:52;;;;;;;10.07;8.02;;;25.20;50.60;;;;;;5010705;28;20101;-54
2023/04/22 09:45:44;;;;;;;9.45;8.45;;;24.30;49.60;;;;;;5010808;28;20026;-53
2023/04/22 09:48:18;;;;;;;11.20;9.25;;;22.30;55.10;;;;;;5008576;28;20046;-51
2023/04/22 09:50:49;;;;;;;10.55;9.18;;;21.80;54.10;;;;;;5010671;28;20121;-57
2023/04/22 09:53:16;;;;;;;12.63;9.52;;;23.20;54.20;;;;;;5010417;28;20390;-54
2023/04/22 09:55:46;;;;;;;8.85;7.88;;;24.00;54.00;;;;;;5010595;28;20026;-56
2023/04/22 09:58:14;;;;;;;7.57;6.85;;;24.30;51.10;;;;;;5010440;28;20025;-53
2023/04/22 10:00:52;;;;;;;8.75;6.60;;;25.10;51.50;;;;;;5010656;28;20089;-54
2023/04/22 10:03:18;;;;;;;9.05;7.65;;;26.00;46.60;;;;;;5010499;28;20036;-53
2023/04/22 10:05:44;;;;;;;9.38;7.93;;;25.60;45.20;;;;;;5010636;28;20026;-53
2023/04/22 10:08:11;;;;;;;11.18;8.10;;;24.70;46.00;;;;;;5010335;28;20165;-52
2023/04/22 10:10:38;;;;;;;12.13;9.50;;;23.00;49.30;;;;;;5009300;28;20541;-52
2023/04/22 10:13:05;;;;;;;10.95;9.32;;;21.60;53.20;;;;;;5011910;28;20030;-52
2023/04/22 10:15:33;;;;;;;10.40;9.27;;;20.20;56.20;;;;;;5014164;28;20077;-50
2023/04/22 10:18:00;;;;;;;12.52;9.38;;;19.10;57.70;;;;;;5014292;28;20084;-51
2023/04/22 10:20:28;;;;;;;11.55;9.68;;;18.30;60.50;;;;;;5014157;28;20037;-56
2023/04/22 10:22:56;;;;;;;11.98;9.65;;;17.80;63.00;;;;;;5013803;28;20029;-51
2023/04/22 10:25:24;;;;;;;13.25;10.95;;;17.40;63.20;;;;;;5013931;28;20507;-53
2023/04/22 10:28:04;;;;;;;13.75;10.70;;;17.00;67.20;;;;;;5014127;28;20042;-56
2023/04/22 10:30:33;;;;;;;13.32;10.70;;;16.60;68.70;;;;;;5014051;28;20028;-54
2023/04/22 10:33:20;;;;;;;14.50;10.40;;;16.50;68.70;;;;;;5014063;28;20034;-53
2023/04/22 10:36:13;;;;;;;12.00;9.23;;;17.30;68.90;;;;;;5013693;28;20268;-50
2023/04/22 10:38:54;;;;;;;11.95;9.27;;;18.90;64.50;;;;;;5013873;28;20053;-55
2023/04/22 10:41:31;;;;;;;11.68;9.13;;;20.80;58.90;;;;;;5000944;28;20076;-53
2023/04/22 10:43:58;;;;;;;12.63;10.00;;;21.10;57.50;;;;;;5013455;28;20022;-50
2023/04/22 10:46:50;;;;;;;15.52;9.95;;;20.60;58.50;;;;;;5013908;28;20026;-49
2023/04/22 10:49:24;;;;;;;12.30;9.05;;;19.70;59.80;;;;;;5012068;28;20053;-53
2023/04/22 10:51:58;;;;;;;11.43;8.85;;;19.50;60.20;;;;;;5015492;28;20026;-52
2023/04/22 10:57:07;;;;;;;10.27;7.68;;;20.10;63.60;;;;;;5008313;28;20037;-53
2023/04/22 10:59:40;;;;;;;9.43;7.35;;;21.30;59.90;;;;;;5005902;28;20109;-53
2023/04/22 11:02:07;;;;;;;7.72;6.35;;;21.80;53.10;;;;;;5012846;28;20076;-51
2023/04/22 11:04:34;;;;;;;8.35;7.28;;;22.30;50.00;;;;;;5012647;28;20022;-51
2023/04/22 11:07:26;;;;;;;8.27;7.07;;;22.60;54.00;;;;;;5012906;28;20367;-55
2023/04/22 11:10:06;;;;;;;8.68;6.90;;;23.10;49.30;;;;;;5014197;28;20032;-55
2023/04/22 11:12:38;;;;;;;7.93;6.07;;;24.10;48.60;;;;;;5012632;28;20061;-48
2023/04/22 11:15:15;;;;;;;7.30;5.65;;;24.00;50.30;;;;;;5011198;28;20022;-58
2023/04/22 11:17:46;;;;;;;8.48;5.90;;;24.00;46.50;;;;;;5012861;28;20053;-47
2023/04/22 11:20:16;;;;;;;13.52;6.88;;;23.80;46.80;;;;;;5009526;28;20026;-53
2023/04/22 11:23:03;;;;;;;8.52;6.53;;;23.00;47.40;;;;;;5012395;28;20026;-47
2023/04/22 11:25:29;;;;;;;15.45;6.93;;;22.00;47.60;;;;;;5008948;28;20477;-47
2023/04/22 11:27:56;;;;;;;8.13;6.40;;;20.90;54.10;;;;;;5003332;28;20475;-50
2023/04/22 11:30:24;;;;;;;11.80;7.20;;;20.40;52.20;;;;;;5002209;28;20022;-50
2023/04/22 11:32:58;;;;;;;7.90;5.60;;;19.50;55.10;;;;;;5008379;28;20022;-50
2023/04/22 11:35:25;;;;;;;7.88;6.40;;;18.90;54.50;;;;;;5006817;28;20034;-50
2023/04/22 11:38:00;;;;;;;11.00;7.20;;;18.70;57.60;;;;;;5006139;28;20026;-51
2023/04/22 11:40:27;;;;;;;13.35;8.15;;;18.30;56.70;;;;;;5002473;28;20031;-49
2023/04/22 11:42:53;;;;;;;10.23;7.50;;;18.10;60.70;;;;;;5000130;28;20032;-47
2023/04/22 11:45:20;;;;;;;14.18;7.45;;;18.10;61.20;;;;;;5006720;28;20022;-47
2023/04/22 11:47:46;;;;;;;9.30;7.65;;;18.00;62.30;;;;;;5010185;28;20034;-51
2023/04/22 11:50:13;;;;;;;11.23;7.47;;;18.10;58.30;;;;;;5012038;28;20022;-55
2023/04/22 11:52:51;;;;;;;9.57;7.50;;;17.80;61.60;;;;;;5011859;28;20040;-49
2023/04/22 11:55:21;;;;;;;10.00;7.45;;;18.10;61.80;;;;;;5004282;28;20014;-52
2023/04/22 11:58:10;;;;;;;9.20;6.72;;;17.90;57.80;;;;;;5008063;28;20040;-49
2023/04/22 12:00:39;;;;;;;9.20;7.07;;;18.10;59.50;;;;;;5009285;28;20049;-54
2023/04/22 12:03:14;;;;;;;8.52;6.85;;;18.40;57.10;;;;;;5008587;28;20037;-47
2023/04/22 12:06:01;;;;;;;8.85;6.88;;;18.80;58.70;;;;;;5011668;28;20026;-47
2023/04/22 12:08:35;;;;;;;8.90;7.28;;;19.20;59.80;;;;;;5011101;28;20041;-47
2023/04/22 12:11:03;;;;;;;10.00;7.30;;;19.70;57.30;;;;;;5011670;28;20032;-47
2023/04/22 12:13:40;;;;;;;12.70;8.02;;;19.20;55.60;;;;;;4998551;28;20468;-52
2023/04/22 12:16:11;;;;;;;9.73;7.90;;;18.80;57.10;;;;;;5003818;28;20033;-48
2023/04/22 12:18:39;;;;;;;11.20;8.10;;;18.30;58.10;;;;;;5003192;28;20105;-45
2023/04/22 12:21:12;;;;;;;10.45;8.15;;;17.90;61.00;;;;;;5006720;28;20025;-49
2023/04/22 12:23:46;;;;;;;9.68;7.45;;;17.70;60.60;;;;;;5000374;28;20469;-50
2023/04/22 12:26:12;;;;;;;10.52;7.82;;;17.40;59.00;;;;;;5007189;28;20096;-49
2023/04/22 12:28:39;;;;;;;11.68;8.80;;;17.00;62.10;;;;;;5005512;28;20516;-49
2023/04/22 12:31:05;;;;;;;11.70;7.75;;;16.60;64.40;;;;;;5008294;28;20015;-47
2023/04/22 12:33:32;;;;;;;10.80;8.73;;;16.30;64.50;;;;;;5011036;28;20045;-53
2023/04/22 12:35:58;;;;;;;10.63;8.43;;;16.00;64.20;;;;;;4986700;28;20026;-44
2023/04/22 12:38:23;;;;;;;11.25;8.02;;;15.60;67.10;;;;;;5010944;28;20033;-49